createdAt,value
2018-01-04T00:00:15.367Z,87.01
2018-01-04T00:01:14.040Z,87.48
2018-01-04T00:02:14.052Z,88.34
2018-01-04T00:03:14.296Z,88.62
2018-01-04T00:04:14.027Z,89.09
2018-01-04T00:05:14.211Z,88.62
2018-01-04T00:06:14.259Z,88.71
2018-01-04T00:07:14.267Z,89.09
2018-01-04T00:08:14.252Z,90.05
2018-01-04T00:09:14.274Z,90.23
2018-01-04T00:10:15.259Z,89.67
2018-01-04T00:11:14.230Z,89.86
2018-01-04T00:12:13.979Z,89.86
2018-01-04T00:13:14.215Z,89.95
2018-01-04T00:14:14.241Z,89.95
2018-01-04T00:15:15.121Z,90.14
2018-01-04T00:16:14.202Z,91.09
2018-01-04T00:17:14.190Z,91.19
2018-01-04T00:18:14.182Z,90.9
2018-01-04T00:19:14.337Z,90.99
2018-01-04T00:20:14.742Z,91.09
2018-01-04T00:21:13.923Z,91.38
2018-01-04T00:22:14.148Z,91.47
2018-01-04T00:23:14.151Z,91.28
2018-01-04T00:24:14.129Z,91.56
2018-01-04T00:25:14.964Z,91.94
2018-01-04T00:26:14.150Z,91.28
2018-01-04T00:27:14.130Z,91.66
2018-01-04T00:28:13.874Z,91.66
2018-01-04T00:29:14.111Z,91.56
2018-01-04T00:30:15.637Z,91.28
2018-01-04T00:31:14.107Z,91.09
2018-01-04T00:32:14.088Z,90.9
2018-01-04T00:33:13.831Z,90.71
2018-01-04T00:34:14.070Z,90.9
2018-01-04T00:35:14.834Z,90.8
2018-01-04T00:36:13.798Z,90.8
2018-01-04T00:37:14.054Z,90.33
2018-01-04T00:38:14.058Z,90.9
2018-01-04T00:39:14.032Z,89.86
2018-01-04T00:40:15.176Z,89
2018-01-04T00:41:13.765Z,88.71
2018-01-04T00:42:14.011Z,89
2018-01-04T00:43:14.008Z,88.53
2018-01-04T00:44:14.000Z,87.95
2018-01-04T00:45:14.801Z,87.67
2018-01-04T00:46:13.744Z,88.67
2018-01-04T00:47:13.981Z,89.04
2018-01-04T00:48:13.724Z,89.04
2018-01-04T00:49:13.969Z,89.23
2018-01-04T00:50:15.305Z,90
2018-01-04T00:51:13.954Z,90.94
2018-01-04T00:52:13.945Z,91.33
2018-01-04T00:53:13.692Z,91.71
2018-01-04T00:54:13.947Z,91.99
2018-01-04T00:55:14.958Z,92.61
2018-01-04T00:56:13.918Z,93.37
2018-01-04T00:57:13.917Z,93.18
2018-01-04T00:58:13.910Z,93.18
2018-01-04T00:59:13.646Z,93.27
2018-01-04T01:00:15.022Z,93.84
2018-01-04T01:01:13.891Z,93.37
2018-01-04T01:02:13.882Z,94.13
2018-01-04T01:03:13.886Z,94.89
2018-01-04T01:04:13.873Z,94.79
2018-01-04T01:05:14.497Z,95.75
2018-01-04T01:06:13.861Z,96.41
2018-01-04T01:07:13.851Z,96.41
2018-01-04T01:08:13.842Z,96.41
2018-01-04T01:09:13.837Z,96.98
2018-01-04T01:10:14.705Z,96.98
2018-01-04T01:11:13.824Z,96.88
2018-01-04T01:12:13.820Z,96.88
2018-01-04T01:13:13.812Z,95.84
2018-01-04T01:14:13.561Z,96.03
2018-01-04T01:15:14.745Z,95.75
2018-01-04T01:16:13.791Z,96.12
2018-01-04T01:17:13.531Z,96.5
2018-01-04T01:18:13.780Z,95.55
2018-01-04T01:19:13.776Z,96.41
2018-01-04T01:20:15.056Z,95.94
2018-01-04T01:21:13.755Z,96.22
2018-01-04T01:22:13.514Z,95.75
2018-01-04T01:23:13.510Z,95.84
2018-01-04T01:24:13.516Z,96.5
2018-01-04T01:25:14.923Z,96.41
2018-01-04T01:26:13.792Z,96.88
2018-01-04T01:27:13.465Z,96.83
2018-01-04T01:28:13.718Z,96.6
2018-01-04T01:29:13.702Z,96.41
2018-01-04T01:30:14.396Z,96.6
2018-01-04T01:31:13.694Z,96.6
2018-01-04T01:32:13.992Z,96.5
2018-01-04T01:33:13.428Z,96.6
2018-01-04T01:34:13.670Z,96.22
2018-01-04T01:35:14.153Z,96.08
2018-01-04T01:36:13.417Z,96.6
2018-01-04T01:37:13.706Z,96.79
2018-01-04T01:38:13.645Z,96.6
2018-01-04T01:39:13.639Z,95.84
2018-01-04T01:40:14.978Z,96.5
2018-01-04T01:41:13.374Z,96.5
2018-01-04T01:42:14.422Z,96.55
2018-01-04T01:43:13.606Z,97.36
2018-01-04T01:44:13.611Z,97.07
2018-01-04T01:45:14.413Z,96.22
2018-01-04T01:46:13.336Z,97.12
2018-01-04T01:47:13.945Z,96.74
2018-01-04T01:48:13.588Z,97.12
2018-01-04T01:49:13.317Z,96.93
2018-01-04T01:50:14.843Z,96.74
2018-01-04T01:51:13.554Z,97.22
2018-01-04T01:52:13.947Z,97.02
2018-01-04T01:53:13.544Z,96.08
2018-01-04T01:54:13.543Z,96.74
2018-01-04T01:55:14.778Z,95.98
2018-01-04T01:56:13.606Z,96.08
2018-01-04T01:57:15.113Z,94.84
2018-01-04T01:58:13.507Z,93.8
2018-01-04T01:59:13.249Z,94.27
2018-01-04T02:00:14.307Z,93.7
2018-01-04T02:01:13.483Z,93.13
2018-01-04T02:02:13.479Z,93.23
2018-01-04T02:03:13.478Z,93.32
2018-01-04T02:04:13.472Z,93.56
2018-01-04T02:05:13.990Z,93.23
2018-01-04T02:06:13.454Z,93.99
2018-01-04T02:07:13.443Z,93.41
2018-01-04T02:08:13.439Z,94.08
2018-01-04T02:09:13.433Z,94.27
2018-01-04T02:10:14.750Z,93.32
2018-01-04T02:11:13.424Z,93.04
2018-01-04T02:12:13.160Z,93.13
2018-01-04T02:13:13.430Z,93.18
2018-01-04T02:14:13.394Z,93.32
2018-01-04T02:15:14.740Z,93.18
2018-01-04T02:16:13.384Z,93.37
2018-01-04T02:17:13.383Z,93.37
2018-01-04T02:18:13.377Z,92.9
2018-01-04T02:19:13.358Z,92.99
2018-01-04T02:20:14.517Z,93.37
2018-01-04T02:21:13.346Z,93.65
2018-01-04T02:22:13.803Z,93.75
2018-01-04T02:23:13.341Z,92.61
2018-01-04T02:24:13.323Z,93.56
2018-01-04T02:25:14.725Z,93.37
2018-01-04T02:26:13.311Z,93.37
2018-01-04T02:27:13.060Z,93.18
2018-01-04T02:28:13.296Z,93.37
2018-01-04T02:29:13.292Z,93.27
2018-01-04T02:30:14.660Z,93.51
2018-01-04T02:31:13.278Z,94.03
2018-01-04T02:32:13.272Z,94.32
2018-01-04T02:33:13.264Z,93.56
2018-01-04T02:34:13.253Z,93.51
2018-01-04T02:35:14.364Z,92.94
2018-01-04T02:36:12.993Z,93.75
2018-01-04T02:37:13.248Z,93.7
2018-01-04T02:38:12.984Z,93.65
2018-01-04T02:39:13.222Z,92.99
2018-01-04T02:40:14.469Z,93.18
2018-01-04T02:41:13.213Z,92.9
2018-01-04T02:42:12.949Z,92.61
2018-01-04T02:43:12.945Z,92.9
2018-01-04T02:44:12.935Z,92.23
2018-01-04T02:45:14.052Z,92.13
2018-01-04T02:46:12.924Z,91.85
2018-01-04T02:47:13.170Z,91.75
2018-01-04T02:48:13.161Z,91.85
2018-01-04T02:49:12.901Z,91.38
2018-01-04T02:50:13.965Z,90.9
2018-01-04T02:51:12.903Z,90.61
2018-01-04T02:52:12.886Z,90.71
2018-01-04T02:53:13.126Z,90.99
2018-01-04T02:54:13.125Z,91.09
2018-01-04T02:55:14.363Z,91.28
2018-01-04T02:56:12.855Z,91.85
2018-01-04T02:57:13.101Z,91.85
2018-01-04T02:58:13.102Z,91.75
2018-01-04T02:59:13.088Z,91.28
2018-01-04T03:00:14.208Z,91.47
2018-01-04T03:01:12.831Z,91.56
2018-01-04T03:02:13.072Z,91.47
2018-01-04T03:03:13.078Z,91.38
2018-01-04T03:04:12.800Z,90.9
2018-01-04T03:05:13.766Z,90.71
2018-01-04T03:06:13.042Z,91.66
2018-01-04T03:07:13.036Z,91.47
2018-01-04T03:08:12.778Z,91.28
2018-01-04T03:09:13.027Z,91.38
2018-01-04T03:10:14.301Z,91.75
2018-01-04T03:11:12.762Z,91.85
2018-01-04T03:12:13.001Z,91.09
2018-01-04T03:13:13.007Z,91.94
2018-01-04T03:14:12.737Z,91.66
2018-01-04T03:15:13.883Z,91.09
2018-01-04T03:16:12.980Z,91.85
2018-01-04T03:17:12.973Z,92.61
2018-01-04T03:18:12.965Z,92.42
2018-01-04T03:19:12.704Z,91.85
2018-01-04T03:20:13.538Z,91.94
2018-01-04T03:21:12.945Z,91.85
2018-01-04T03:22:12.938Z,92.13
2018-01-04T03:23:12.934Z,92.9
2018-01-04T03:24:12.927Z,92.51
2018-01-04T03:25:13.449Z,92.23
2018-01-04T03:26:12.914Z,93.37
2018-01-04T03:27:12.654Z,92.99
2018-01-04T03:28:12.902Z,92.99
2018-01-04T03:29:12.890Z,93.37
2018-01-04T03:30:14.223Z,92.99
2018-01-04T03:31:12.884Z,92.99
2018-01-04T03:32:12.885Z,93.46
2018-01-04T03:33:12.878Z,93.18
2018-01-04T03:34:12.867Z,93.37
2018-01-04T03:35:13.841Z,93.18
2018-01-04T03:36:12.861Z,93.65
2018-01-04T03:37:12.841Z,93.37
2018-01-04T03:38:12.842Z,93.75
2018-01-04T03:39:12.831Z,93.37
2018-01-04T03:40:14.382Z,93.46
2018-01-04T03:41:12.826Z,93.56
2018-01-04T03:42:12.810Z,93.37
2018-01-04T03:43:12.809Z,93.46
2018-01-04T03:44:12.546Z,93.37
2018-01-04T03:45:14.030Z,93.46
2018-01-04T03:46:12.786Z,93.37
2018-01-04T03:47:12.781Z,93.65
2018-01-04T03:48:12.775Z,94.42
2018-01-04T03:49:12.771Z,94.51
2018-01-04T03:50:13.689Z,94.32
2018-01-04T03:51:12.500Z,94.23
2018-01-04T03:52:12.491Z,94.7
2018-01-04T03:53:12.485Z,94.89
2018-01-04T03:54:12.736Z,94.42
2018-01-04T03:55:13.418Z,94.89
2018-01-04T03:56:12.716Z,95.27
2018-01-04T03:57:12.764Z,95.65
2018-01-04T03:58:12.451Z,95.75
2018-01-04T03:59:12.696Z,95.17
2018-01-04T04:00:14.223Z,95.46
2018-01-04T04:01:12.431Z,94.98
2018-01-04T04:02:12.680Z,94.98
2018-01-04T04:03:12.424Z,94.89
2018-01-04T04:04:12.663Z,95.84
2018-01-04T04:05:12.775Z,94.89
2018-01-04T04:06:12.401Z,94.98
2018-01-04T04:07:12.650Z,95.94
2018-01-04T04:08:12.636Z,94.98
2018-01-04T04:09:12.628Z,94.79
2018-01-04T04:10:13.972Z,94.79
2018-01-04T04:11:12.363Z,94.6
2018-01-04T04:12:12.610Z,94.32
2018-01-04T04:13:12.615Z,94.6
2018-01-04T04:14:12.597Z,94.7
2018-01-04T04:15:13.756Z,94.6
2018-01-04T04:16:12.582Z,94.51
2018-01-04T04:17:12.326Z,94.32
2018-01-04T04:18:12.567Z,94.23
2018-01-04T04:19:12.561Z,94.51
2018-01-04T04:20:13.301Z,94.6
2018-01-04T04:21:12.550Z,94.32
2018-01-04T04:22:12.547Z,94.23
2018-01-04T04:23:12.540Z,93.37
2018-01-04T04:24:12.525Z,93.37
2018-01-04T04:25:14.020Z,94.42
2018-01-04T04:26:12.264Z,94.42
2018-01-04T04:27:12.507Z,93.37
2018-01-04T04:28:12.503Z,93.65
2018-01-04T04:29:12.497Z,93.56
2018-01-04T04:30:13.803Z,93.27
2018-01-04T04:31:12.488Z,93.18
2018-01-04T04:32:12.478Z,93.75
2018-01-04T04:33:12.471Z,94.03
2018-01-04T04:34:12.465Z,93.46
2018-01-04T04:35:13.251Z,93.18
2018-01-04T04:36:12.450Z,93.18
2018-01-04T04:37:12.447Z,93.18
2018-01-04T04:38:12.435Z,92.71
2018-01-04T04:39:12.431Z,93.46
2018-01-04T04:40:13.058Z,92.61
2018-01-04T04:41:12.164Z,91.85
2018-01-04T04:42:12.417Z,91.56
2018-01-04T04:43:12.403Z,91.28
2018-01-04T04:44:12.398Z,91.66
2018-01-04T04:45:13.557Z,91.56
2018-01-04T04:46:12.137Z,91.85
2018-01-04T04:47:12.396Z,92.32
2018-01-04T04:48:12.370Z,92.51
2018-01-04T04:49:12.362Z,92.32
2018-01-04T04:50:13.492Z,92.51
2018-01-04T04:51:12.351Z,92.71
2018-01-04T04:52:12.345Z,92.71
2018-01-04T04:53:12.088Z,92.9
2018-01-04T04:54:12.333Z,92.85
2018-01-04T04:55:13.379Z,93.04
2018-01-04T04:56:12.064Z,92.85
2018-01-04T04:57:12.312Z,93.32
2018-01-04T04:58:12.314Z,93.7
2018-01-04T04:59:12.302Z,92.85
2018-01-04T05:00:13.110Z,92.85
2018-01-04T05:01:12.282Z,92.56
2018-01-04T05:02:12.276Z,92.85
2018-01-04T05:03:12.276Z,92.66
2018-01-04T05:04:12.271Z,92.94
2018-01-04T05:05:13.030Z,92.56
2018-01-04T05:06:12.259Z,92.94
2018-01-04T05:07:12.288Z,93.32
2018-01-04T05:08:12.235Z,93.51
2018-01-04T05:09:12.228Z,93.7
2018-01-04T05:10:13.416Z,93.7
2018-01-04T05:11:12.224Z,93.32
2018-01-04T05:12:12.216Z,93.23
2018-01-04T05:13:12.218Z,93.32
2018-01-04T05:14:12.199Z,93.32
2018-01-04T05:15:13.312Z,93.6
2018-01-04T05:16:12.185Z,93.23
2018-01-04T05:17:12.176Z,93.51
2018-01-04T05:18:11.914Z,94.18
2018-01-04T05:19:12.173Z,94.08
2018-01-04T05:20:12.964Z,94.18
2018-01-04T05:21:12.162Z,93.99
2018-01-04T05:22:12.141Z,94.08
2018-01-04T05:23:12.128Z,94.08
2018-01-04T05:24:12.126Z,94.46
2018-01-04T05:25:13.399Z,94.65
2018-01-04T05:26:12.107Z,94.84
2018-01-04T05:27:12.112Z,94.93
2018-01-04T05:28:11.842Z,94.27
2018-01-04T05:29:12.104Z,93.8
2018-01-04T05:30:13.451Z,94.18
2018-01-04T05:31:12.072Z,94.27
2018-01-04T05:32:12.064Z,94.74
2018-01-04T05:33:11.807Z,94.74
2018-01-04T05:34:12.066Z,93.89
2018-01-04T05:35:12.727Z,94.93
2018-01-04T05:36:12.044Z,95.12
2018-01-04T05:37:12.037Z,95.22
2018-01-04T05:38:12.029Z,95.98
2018-01-04T05:39:12.017Z,96.64
2018-01-04T05:40:12.979Z,95.98
2018-01-04T05:41:11.754Z,95.75
2018-01-04T05:42:11.998Z,97.17
2018-01-04T05:43:11.992Z,96.79
2018-01-04T05:44:11.991Z,97.22
2018-01-04T05:45:13.225Z,97.17
2018-01-04T05:46:11.968Z,97.07
2018-01-04T05:47:11.964Z,97.07
2018-01-04T05:48:11.960Z,96.88
2018-01-04T05:49:11.948Z,96.98
2018-01-04T05:50:13.078Z,96.45
2018-01-04T05:51:11.936Z,96.31
2018-01-04T05:52:11.933Z,96.6
2018-01-04T05:53:11.922Z,97.07
2018-01-04T05:54:11.917Z,97.36
2018-01-04T05:55:13.026Z,96.98
2018-01-04T05:56:11.922Z,97.07
2018-01-04T05:57:11.902Z,97.45
2018-01-04T05:58:11.904Z,97.83
2018-01-04T05:59:11.650Z,97.31
2018-01-04T06:00:12.913Z,97.55
2018-01-04T06:01:11.908Z,97.27
2018-01-04T06:02:11.615Z,96.98
2018-01-04T06:03:11.606Z,96.79
2018-01-04T06:04:11.602Z,96.45
2018-01-04T06:05:12.486Z,96.79
2018-01-04T06:06:11.862Z,97.07
2018-01-04T06:07:11.857Z,97.36
2018-01-04T06:08:11.827Z,96.98
2018-01-04T06:09:11.834Z,96.69
2018-01-04T06:10:12.486Z,96.6
2018-01-04T06:11:11.815Z,97.07
2018-01-04T06:12:11.546Z,97.07
2018-01-04T06:13:11.854Z,97.31
2018-01-04T06:14:11.789Z,97.36
2018-01-04T06:15:13.038Z,97.69
2018-01-04T06:16:11.777Z,97.27
2018-01-04T06:17:11.766Z,97.92
2018-01-04T06:18:11.769Z,97.55
2018-01-04T06:19:11.500Z,97.36
2018-01-04T06:20:13.048Z,97.17
2018-01-04T06:21:11.491Z,97.27
2018-01-04T06:22:11.487Z,96.88
2018-01-04T06:23:11.731Z,97.36
2018-01-04T06:24:11.725Z,97.83
2018-01-04T06:25:12.228Z,97.07
2018-01-04T06:26:11.714Z,97.36
2018-01-04T06:27:11.700Z,97.64
2018-01-04T06:28:11.692Z,97.92
2018-01-04T06:29:11.434Z,97.36
2018-01-04T06:30:12.820Z,97.27
2018-01-04T06:31:11.673Z,97.17
2018-01-04T06:32:11.683Z,97.36
2018-01-04T06:33:11.410Z,97.83
2018-01-04T06:34:11.656Z,97.74
2018-01-04T06:35:12.759Z,97.83
2018-01-04T06:36:11.642Z,97.74
2018-01-04T06:37:11.636Z,97.64
2018-01-04T06:38:11.629Z,97.27
2018-01-04T06:39:11.389Z,97.17
2018-01-04T06:40:12.264Z,97.27
2018-01-04T06:41:11.369Z,97.45
2018-01-04T06:42:11.605Z,97.64
2018-01-04T06:43:11.600Z,97.55
2018-01-04T06:44:11.342Z,97.92
2018-01-04T06:45:12.161Z,97.55
2018-01-04T06:46:11.577Z,97.55
2018-01-04T06:47:11.591Z,97.92
2018-01-04T06:48:11.569Z,97.74
2018-01-04T06:49:11.652Z,97.74
2018-01-04T06:50:12.356Z,98.02
2018-01-04T06:51:11.583Z,98.4
2018-01-04T06:52:11.553Z,97.64
2018-01-04T06:53:11.539Z,97.36
2018-01-04T06:54:11.539Z,96.88
2018-01-04T06:55:12.023Z,97.83
2018-01-04T06:56:11.517Z,97.27
2018-01-04T06:57:11.263Z,97.45
2018-01-04T06:58:11.511Z,97.64
2018-01-04T06:59:11.515Z,97.64
2018-01-04T07:00:11.954Z,98.21
2018-01-04T07:01:11.484Z,97.64
2018-01-04T07:02:11.478Z,97.74
2018-01-04T07:03:11.481Z,97.55
2018-01-04T07:04:11.465Z,97.92
2018-01-04T07:05:12.519Z,98.4
2018-01-04T07:06:11.226Z,97.92
2018-01-04T07:07:11.454Z,97.55
2018-01-04T07:08:11.439Z,97.74
2018-01-04T07:09:11.885Z,98.5
2018-01-04T07:10:12.568Z,98.12
2018-01-04T07:11:11.442Z,98.21
2018-01-04T07:12:11.418Z,97.92
2018-01-04T07:13:11.408Z,97.55
2018-01-04T07:14:11.603Z,97.74
2018-01-04T07:15:12.220Z,97.74
2018-01-04T07:16:11.391Z,98.31
2018-01-04T07:17:11.401Z,98.59
2018-01-04T07:18:11.386Z,98.02
2018-01-04T07:19:11.626Z,97.55
2018-01-04T07:20:12.652Z,97.55
2018-01-04T07:21:11.357Z,97.64
2018-01-04T07:22:11.356Z,97.55
2018-01-04T07:23:11.099Z,97.64
2018-01-04T07:24:11.654Z,97.92
2018-01-04T07:25:12.589Z,97.74
2018-01-04T07:26:11.331Z,97.83
2018-01-04T07:27:11.319Z,97.74
2018-01-04T07:28:11.067Z,97.64
2018-01-04T07:29:13.717Z,98.12
2018-01-04T07:30:12.220Z,97.92
2018-01-04T07:31:11.051Z,97.07
2018-01-04T07:32:11.294Z,97.27
2018-01-04T07:33:11.301Z,97.27
2018-01-04T07:34:11.280Z,96.79
2018-01-04T07:35:12.078Z,96.69
2018-01-04T07:36:11.015Z,97.55
2018-01-04T07:37:11.260Z,97.27
2018-01-04T07:38:11.002Z,96.98
2018-01-04T07:39:10.995Z,97.36
2018-01-04T07:40:11.840Z,97.17
2018-01-04T07:41:10.985Z,96.41
2018-01-04T07:42:11.237Z,97.27
2018-01-04T07:43:10.971Z,96.98
2018-01-04T07:44:10.963Z,97.17
2018-01-04T07:45:11.592Z,97.36
2018-01-04T07:46:11.204Z,97.17
2018-01-04T07:47:11.200Z,97.17
2018-01-04T07:48:10.939Z,97.17
2018-01-04T07:49:11.190Z,96.41
2018-01-04T07:50:11.584Z,96.41
2018-01-04T07:51:11.178Z,97.36
2018-01-04T07:52:11.174Z,97.27
2018-01-04T07:53:10.913Z,97.17
2018-01-04T07:54:11.156Z,97.17
2018-01-04T07:55:11.641Z,97.36
2018-01-04T07:56:11.148Z,97.27
2018-01-04T07:57:11.144Z,97.36
2018-01-04T07:58:10.873Z,97.36
2018-01-04T07:59:11.122Z,97.45
2018-01-04T08:00:11.752Z,97.55
2018-01-04T08:01:11.110Z,97.36
2018-01-04T08:02:11.107Z,97.55
2018-01-04T08:03:10.848Z,97.74
2018-01-04T08:04:11.103Z,97.83
2018-01-04T08:05:11.763Z,97.92
2018-01-04T08:06:11.089Z,98.31
2018-01-04T08:07:10.816Z,97.69
2018-01-04T08:08:11.069Z,97.83
2018-01-04T08:09:10.806Z,97.74
2018-01-04T08:10:11.886Z,98.45
2018-01-04T08:11:11.049Z,98.79
2018-01-04T08:12:11.040Z,98.4
2018-01-04T08:13:10.786Z,98.97
2018-01-04T08:14:11.027Z,99.99
2018-01-04T08:15:11.854Z,99.99
2018-01-04T08:16:11.018Z,99.99
2018-01-04T08:17:10.757Z,99.99
2018-01-04T08:18:10.754Z,99.99
2018-01-04T08:19:11.008Z,99.99
2018-01-04T08:20:11.845Z,99.54
2018-01-04T08:21:10.989Z,99.92
2018-01-04T08:22:10.981Z,99.99
2018-01-04T08:23:10.978Z,99.99
2018-01-04T08:24:10.980Z,99.99
2018-01-04T08:25:12.043Z,99.99
2018-01-04T08:26:10.705Z,99.99
2018-01-04T08:27:10.965Z,99.99
2018-01-04T08:28:10.944Z,99.99
2018-01-04T08:29:10.938Z,99.99
2018-01-04T08:30:11.730Z,99.99
2018-01-04T08:31:10.674Z,99.99
2018-01-04T08:32:10.920Z,99.99
2018-01-04T08:33:10.920Z,99.99
2018-01-04T08:34:10.913Z,99.99
2018-01-04T08:35:12.091Z,99.99
2018-01-04T08:36:10.899Z,99.99
2018-01-04T08:37:10.893Z,99.99
2018-01-04T08:38:10.887Z,99.99
2018-01-04T08:39:10.885Z,99.99
2018-01-04T08:40:11.991Z,99.99
2018-01-04T08:41:10.869Z,99.99
2018-01-04T08:42:10.619Z,99.99
2018-01-04T08:43:10.858Z,99.99
2018-01-04T08:44:10.856Z,99.99
2018-01-04T08:45:11.329Z,99.99
2018-01-04T08:46:10.585Z,99.99
2018-01-04T08:47:10.840Z,99.99
2018-01-04T08:48:10.578Z,99.99
2018-01-04T08:49:10.820Z,99.99
2018-01-04T08:50:11.136Z,99.99
2018-01-04T08:51:10.831Z,99.99
2018-01-04T08:52:10.813Z,99.99
2018-01-04T08:53:10.545Z,99.99
2018-01-04T08:54:10.540Z,99.99
2018-01-04T08:55:11.264Z,99.99
2018-01-04T08:56:10.781Z,99.99
2018-01-04T08:57:10.518Z,99.99
2018-01-04T08:58:10.771Z,99.99
2018-01-04T08:59:10.770Z,99.99
2018-01-04T09:00:11.547Z,99.99
2018-01-04T09:01:10.499Z,99.99
2018-01-04T09:02:10.782Z,99.99
2018-01-04T09:03:10.486Z,99.99
2018-01-04T09:04:10.765Z,99.99
2018-01-04T09:05:11.419Z,99.99
2018-01-04T09:06:10.737Z,99.99
2018-01-04T09:07:10.715Z,99.99
2018-01-04T09:08:10.457Z,99.99
2018-01-04T09:09:10.705Z,99.99
2018-01-04T09:10:11.078Z,99.99
2018-01-04T09:11:10.694Z,99.99
2018-01-04T09:12:10.688Z,99.99
2018-01-04T09:13:10.685Z,99.99
2018-01-04T09:14:10.673Z,99.99
2018-01-04T09:15:11.751Z,99.99
2018-01-04T09:16:10.419Z,99.99
2018-01-04T09:17:10.401Z,99.99
2018-01-04T09:18:10.400Z,99.99
2018-01-04T09:19:10.395Z,99.99
2018-01-04T09:20:11.456Z,99.99
2018-01-04T09:21:10.387Z,99.99
2018-01-04T09:22:10.628Z,99.99
2018-01-04T09:23:10.620Z,99.99
2018-01-04T09:24:10.613Z,99.99
2018-01-04T09:25:11.708Z,99.99
2018-01-04T09:26:10.607Z,99.99
2018-01-04T09:27:10.345Z,99.99
2018-01-04T09:28:10.593Z,99.99
2018-01-04T09:29:10.590Z,99.99
2018-01-04T09:30:11.328Z,99.99
2018-01-04T09:31:10.580Z,99.99
2018-01-04T09:32:10.568Z,99.99
2018-01-04T09:33:10.576Z,99.99
2018-01-04T09:34:10.564Z,99.99
2018-01-04T09:35:11.294Z,99.99
2018-01-04T09:36:10.555Z,99.99
2018-01-04T09:37:10.539Z,99.99
2018-01-04T09:38:10.535Z,99.99
2018-01-04T09:39:10.277Z,99.99
2018-01-04T09:40:10.860Z,99.99
2018-01-04T09:41:10.265Z,99.99
2018-01-04T09:42:10.263Z,99.99
2018-01-04T09:43:10.519Z,99.99
2018-01-04T09:44:10.503Z,99.99
2018-01-04T09:45:11.417Z,99.99
2018-01-04T09:46:10.491Z,99.99
2018-01-04T09:47:10.484Z,99.99
2018-01-04T09:48:10.481Z,99.99
2018-01-04T09:49:10.475Z,99.99
2018-01-04T09:50:11.436Z,99.99
2018-01-04T09:51:10.463Z,99.99
2018-01-04T09:52:10.457Z,99.99
2018-01-04T09:53:10.196Z,99.99
2018-01-04T09:54:10.189Z,99.99
2018-01-04T09:55:11.193Z,99.99
2018-01-04T09:56:10.441Z,99.99
2018-01-04T09:57:10.429Z,99.99
2018-01-04T09:58:10.421Z,99.99
2018-01-04T09:59:10.424Z,99.99
2018-01-04T10:00:11.319Z,99.99
2018-01-04T10:01:10.407Z,99.99
2018-01-04T10:02:10.401Z,99.99
2018-01-04T10:03:10.397Z,99.99
2018-01-04T10:04:10.393Z,99.99
2018-01-04T10:05:10.660Z,99.99
2018-01-04T10:06:10.384Z,99.99
2018-01-04T10:07:10.376Z,99.99
2018-01-04T10:08:10.373Z,99.99
2018-01-04T10:09:10.368Z,99.99
2018-01-04T10:10:10.753Z,99.99
2018-01-04T10:11:10.352Z,99.99
2018-01-04T10:12:10.346Z,99.99
2018-01-04T10:13:10.342Z,99.99
2018-01-04T10:14:10.334Z,99.99
2018-01-04T10:15:11.653Z,99.99
2018-01-04T10:16:10.076Z,99.99
2018-01-04T10:17:10.319Z,99.99
2018-01-04T10:18:10.059Z,99.99
2018-01-04T10:19:10.317Z,99.99
2018-01-04T10:20:10.804Z,99.99
2018-01-04T10:21:10.040Z,99.99
2018-01-04T10:22:10.286Z,99.99
2018-01-04T10:52:33.781Z,99.99
2018-01-04T10:53:33.771Z,99.99
2018-01-04T10:54:33.512Z,99.99
2018-01-04T10:55:33.563Z,99.99
2018-01-04T10:56:33.726Z,99.99
2018-01-04T10:57:33.723Z,99.99
2018-01-04T10:58:33.707Z,99.99
2018-01-04T10:59:33.705Z,99.99
2018-01-04T11:00:33.469Z,99.99
2018-01-04T11:01:33.436Z,99.99
2018-01-04T11:02:33.674Z,99.99
2018-01-04T11:03:33.445Z,99.99
2018-01-04T11:04:33.425Z,99.99
2018-01-04T11:05:33.669Z,99.99
2018-01-04T11:06:33.416Z,99.99
2018-01-04T11:07:35.141Z,99.99
2018-01-04T11:08:33.638Z,99.99
2018-01-04T11:09:33.390Z,99.99
2018-01-04T11:10:33.620Z,99.99
2018-01-04T11:11:33.375Z,99.99
2018-01-04T11:12:33.609Z,99.99
2018-01-04T11:13:33.615Z,99.99
2018-01-04T11:14:33.364Z,99.99
2018-01-04T11:15:33.343Z,99.99
2018-01-04T11:16:33.601Z,99.99
2018-01-04T11:17:33.605Z,99.99
2018-01-04T11:18:33.325Z,99.99
2018-01-04T11:19:33.345Z,99.99
2018-01-04T11:20:33.577Z,99.99
2018-01-04T11:21:33.569Z,99.99
2018-01-04T11:22:33.318Z,99.99
2018-01-04T11:23:33.549Z,99.99
2018-01-04T11:24:33.303Z,99.99
2018-01-04T11:25:33.534Z,99.99
2018-01-04T11:26:33.548Z,99.99
2018-01-04T11:27:33.530Z,99.99
2018-01-04T11:28:33.282Z,99.99
2018-01-04T11:29:33.533Z,99.99
2018-01-04T11:30:33.514Z,99.99
2018-01-04T11:31:33.511Z,99.99
2018-01-04T11:32:33.249Z,99.99
2018-01-04T11:33:33.498Z,99.99
2018-01-04T11:34:33.515Z,99.99
2018-01-04T11:35:33.488Z,99.99
2018-01-04T11:36:33.231Z,99.99
2018-01-04T11:37:35.369Z,99.99
2018-01-04T11:38:33.534Z,99.99
2018-01-04T11:39:33.219Z,99.99
2018-01-04T11:40:33.219Z,99.99
2018-01-04T11:41:33.220Z,99.99
2018-01-04T11:42:33.562Z,99.99
2018-01-04T11:43:33.192Z,99.99
2018-01-04T11:44:33.436Z,99.99
2018-01-04T11:45:33.452Z,99.99
2018-01-04T11:46:33.443Z,99.99
2018-01-04T11:47:33.179Z,99.99
2018-01-04T11:48:33.428Z,99.99
2018-01-04T11:49:33.419Z,99.99
2018-01-04T11:50:33.422Z,99.99
2018-01-04T11:51:33.534Z,99.99
2018-01-04T11:52:33.407Z,99.99
2018-01-04T11:53:33.391Z,99.99
2018-01-04T11:54:33.382Z,99.99
2018-01-04T11:55:33.411Z,99.99
2018-01-04T11:56:33.397Z,99.99
2018-01-04T11:57:33.382Z,99.99
2018-01-04T11:58:33.372Z,99.99
2018-01-04T11:59:33.100Z,99.99
2018-01-04T12:00:33.374Z,99.99
2018-01-04T12:01:33.380Z,99.99
2018-01-04T12:02:33.359Z,99.99
2018-01-04T12:03:33.377Z,99.99
2018-01-04T12:04:33.076Z,99.99
2018-01-04T12:05:33.072Z,99.99
2018-01-04T12:06:33.328Z,99.99
2018-01-04T12:07:33.350Z,99.99
2018-01-04T12:08:33.441Z,99.99
2018-01-04T12:09:33.321Z,99.99
2018-01-04T12:10:33.318Z,99.99
2018-01-04T12:11:33.042Z,99.99
2018-01-04T12:12:33.310Z,99.99
2018-01-04T12:13:33.030Z,99.99
2018-01-04T12:14:33.300Z,99.99
2018-01-04T12:15:33.287Z,99.99
2018-01-04T12:16:33.014Z,99.99
2018-01-04T12:17:33.302Z,99.99
2018-01-04T12:18:33.268Z,99.99
2018-01-04T12:19:33.266Z,99.99
2018-01-04T12:20:33.265Z,99.99
2018-01-04T12:21:33.267Z,99.99
2018-01-04T12:22:32.984Z,99.99
2018-01-04T12:23:32.978Z,99.99
2018-01-04T12:24:32.975Z,99.99
2018-01-04T12:25:33.248Z,99.99
2018-01-04T12:26:33.245Z,99.99
2018-01-04T12:27:33.241Z,99.99
2018-01-04T12:28:32.969Z,99.99
2018-01-04T12:29:33.212Z,99.99
2018-01-04T12:30:33.224Z,99.99
2018-01-04T12:31:33.196Z,99.99
2018-01-04T12:32:33.198Z,99.99
2018-01-04T12:33:33.196Z,99.99
2018-01-04T12:34:33.179Z,99.99
2018-01-04T12:35:33.180Z,99.99
2018-01-04T12:36:32.919Z,99.99
2018-01-04T12:37:33.164Z,99.99
2018-01-04T12:38:33.170Z,99.99
2018-01-04T12:39:33.160Z,99.99
2018-01-04T12:40:33.157Z,99.99
2018-01-04T12:41:33.150Z,99.99
2018-01-04T12:42:33.136Z,99.99
2018-01-04T12:43:32.899Z,99.99
2018-01-04T12:44:33.132Z,99.99
2018-01-04T12:45:33.127Z,99.99
2018-01-04T12:46:33.136Z,99.99
2018-01-04T12:47:33.116Z,99.99
2018-01-04T12:48:33.112Z,99.99
2018-01-04T12:49:33.102Z,99.99
2018-01-04T12:50:32.845Z,99.99
2018-01-04T12:51:33.092Z,99.99
2018-01-04T12:52:32.832Z,99.99
2018-01-04T12:53:33.080Z,99.99
2018-01-04T12:54:32.824Z,99.99
2018-01-04T12:55:33.073Z,99.99
2018-01-04T12:56:32.815Z,99.99
2018-01-04T12:57:33.061Z,99.99
2018-01-04T12:58:33.058Z,99.99
2018-01-04T12:59:32.799Z,99.99
2018-01-04T13:00:32.792Z,99.99
2018-01-04T13:01:33.047Z,99.99
2018-01-04T13:02:32.783Z,99.99
2018-01-04T13:03:33.030Z,99.99
2018-01-04T13:04:33.031Z,99.99
2018-01-04T13:05:33.028Z,99.99
2018-01-04T13:06:32.771Z,99.99
2018-01-04T13:07:33.010Z,99.99
2018-01-04T13:08:33.003Z,99.99
2018-01-04T13:09:32.751Z,99.99
2018-01-04T13:10:32.991Z,99.99
2018-01-04T13:11:32.992Z,99.99
2018-01-04T13:12:32.996Z,99.99
2018-01-04T13:13:32.976Z,99.99
2018-01-04T13:14:32.971Z,99.99
2018-01-04T13:15:32.967Z,99.99
2018-01-04T13:16:32.970Z,99.99
2018-01-04T13:17:32.958Z,99.99
2018-01-04T13:18:32.963Z,99.99
2018-01-04T13:19:32.948Z,99.99
2018-01-04T13:20:32.690Z,99.99
2018-01-04T13:21:32.687Z,99.99
2018-01-04T13:22:32.932Z,99.99
2018-01-04T13:23:32.928Z,99.99